createdAt,value
2022-09-22T00:00:39.259Z,14.70
2022-09-22T00:03:06.076Z,14.70
2022-09-22T00:35:08.420Z,14.50
2022-09-22T00:47:47.216Z,14.40
2022-09-22T00:50:22.487Z,14.50
2022-09-22T00:58:14.147Z,14.30
2022-09-22T01:08:08.095Z,14.40
2022-09-22T01:13:24.501Z,14.30
2022-09-22T01:29:18.868Z,14.30
2022-09-22T01:34:29.978Z,14.30
2022-09-22T01:39:38.552Z,14.30
2022-09-22T01:55:06.679Z,14.10
2022-09-22T02:10:27.863Z,14.00
2022-09-22T02:28:07.798Z,13.90
2022-09-22T03:03:13.215Z,13.80
2022-09-22T03:15:45.343Z,13.70
2022-09-22T03:18:12.537Z,13.70
2022-09-22T03:35:23.506Z,13.60
2022-09-22T04:19:36.168Z,13.50
2022-09-22T04:51:56.202Z,13.30
2022-09-22T05:09:08.434Z,13.20
2022-09-22T05:16:32.223Z,13.10
2022-09-22T05:53:25.906Z,13.00
2022-09-22T06:00:47.592Z,13.00
2022-09-22T06:05:44.015Z,13.00
2022-09-22T06:18:07.071Z,13.00
2022-09-22T06:20:35.010Z,12.90
2022-09-22T06:57:59.264Z,13.30
2022-09-22T07:07:59.702Z,13.40
2022-09-22T07:12:54.338Z,13.40
2022-09-22T07:30:10.948Z,13.60
2022-09-22T08:00:33.474Z,14.00
2022-09-22T08:05:29.764Z,14.00
2022-09-22T08:17:58.128Z,14.20
2022-09-22T08:27:52.411Z,14.30
2022-09-22T08:48:34.183Z,14.50
2022-09-22T08:51:34.297Z,14.60
2022-09-22T08:56:57.405Z,14.60
2022-09-22T08:59:42.271Z,14.60
2022-09-22T09:08:06.487Z,14.80
2022-09-22T09:21:53.075Z,15.10
2022-09-22T09:27:38.507Z,15.20
2022-09-22T09:30:22.662Z,15.20
2022-09-22T09:35:28.428Z,15.30
2022-09-22T09:37:58.766Z,15.40
2022-09-22T09:43:04.248Z,15.50
2022-09-22T09:45:45.001Z,15.60
2022-09-22T09:48:20.414Z,15.60
2022-09-22T09:53:30.867Z,15.80
2022-09-22T10:01:14.522Z,15.90
2022-09-22T10:03:47.715Z,16.00
2022-09-22T10:06:24.060Z,16.00
2022-09-22T10:08:51.848Z,16.10
2022-09-22T10:11:30.187Z,16.20
2022-09-22T10:13:57.600Z,16.20
2022-09-22T10:16:30.416Z,16.30
2022-09-22T10:24:00.251Z,16.50
2022-09-22T10:26:30.288Z,16.60
2022-09-22T10:29:18.406Z,16.60
2022-09-22T10:32:06.350Z,16.70
2022-09-22T10:34:40.437Z,16.80
2022-09-22T10:37:10.818Z,16.80
2022-09-22T10:39:46.333Z,16.90
2022-09-22T10:42:35.170Z,17.00
2022-09-22T10:45:16.444Z,17.10
2022-09-22T10:48:16.109Z,17.20
2022-09-22T10:50:51.624Z,17.30
2022-09-22T10:56:15.995Z,17.40
2022-09-22T10:59:09.189Z,17.50
2022-09-22T11:04:33.910Z,17.60
2022-09-22T11:07:28.237Z,17.70
2022-09-22T11:10:51.668Z,17.80
2022-09-22T11:13:40.166Z,17.90
2022-09-22T11:16:33.923Z,17.90
2022-09-22T11:19:25.680Z,18.00
2022-09-22T11:22:04.339Z,18.10
2022-09-22T11:24:44.403Z,18.10
2022-09-22T11:27:46.405Z,18.20
2022-09-22T11:30:23.244Z,18.30
2022-09-22T11:33:03.145Z,18.40
2022-09-22T11:36:07.342Z,18.40
2022-09-22T11:38:46.901Z,18.50
2022-09-22T11:41:30.116Z,18.60
2022-09-22T11:44:17.419Z,18.60
2022-09-22T11:47:00.974Z,18.80
2022-09-22T11:52:05.864Z,18.90
2022-09-22T11:55:00.450Z,18.90
2022-09-22T11:57:33.783Z,18.90
2022-09-22T12:00:05.766Z,19.00
2022-09-22T12:03:03.493Z,19.10
2022-09-22T12:05:43.659Z,19.10
2022-09-22T12:08:16.142Z,19.20
2022-09-22T12:10:47.434Z,19.20
2022-09-22T12:13:21.296Z,19.30
2022-09-22T12:16:11.351Z,19.40
2022-09-22T12:19:08.729Z,19.40
2022-09-22T12:21:55.414Z,19.50
2022-09-22T12:24:22.296Z,19.60
2022-09-22T12:26:50.878Z,19.70
2022-09-22T12:29:20.732Z,19.80
2022-09-22T12:31:50.565Z,19.90
2022-09-22T12:34:23.570Z,20.00
2022-09-22T12:37:22.263Z,20.10
2022-09-22T12:39:49.897Z,20.30
2022-09-22T12:42:38.979Z,20.50
2022-09-22T12:47:41.269Z,21.00
2022-09-22T12:50:41.220Z,21.20
2022-09-22T12:53:22.967Z,21.40
2022-09-22T12:55:51.257Z,21.60
2022-09-22T12:58:20.838Z,21.80
2022-09-22T13:00:49.604Z,22.00
2022-09-22T13:03:25.679Z,22.10
2022-09-22T13:05:56.932Z,22.40
2022-09-22T13:08:32.963Z,22.60
2022-09-22T13:11:09.229Z,22.80
2022-09-22T13:13:47.241Z,23.10
2022-09-22T13:18:42.740Z,23.50
2022-09-22T13:21:14.691Z,23.70
2022-09-22T13:23:56.795Z,23.80
2022-09-22T13:26:40.863Z,24.10
2022-09-22T13:29:14.826Z,24.30
2022-09-22T13:31:51.473Z,24.50
2022-09-22T13:34:34.427Z,24.70
2022-09-22T13:39:33.716Z,25.00
2022-09-22T13:42:12.816Z,25.10
2022-09-22T13:44:43.115Z,25.20
2022-09-22T13:47:18.559Z,25.40
2022-09-22T13:49:51.710Z,25.50
2022-09-22T13:52:27.489Z,25.70
2022-09-22T13:54:56.133Z,25.70
2022-09-22T13:57:30.976Z,26.10
2022-09-22T14:00:01.408Z,26.30
2022-09-22T14:02:31.875Z,26.90
2022-09-22T14:05:08.165Z,26.70
2022-09-22T14:07:49.490Z,26.70
2022-09-22T14:10:24.903Z,27.20
2022-09-22T14:12:51.868Z,27.30
2022-09-22T14:15:37.493Z,27.50
2022-09-22T14:18:10.680Z,27.70
2022-09-22T14:20:43.397Z,27.90
2022-09-22T14:23:30.997Z,28.00
2022-09-22T14:26:03.111Z,28.30
2022-09-22T14:28:34.931Z,28.40
2022-09-22T14:31:02.491Z,28.60
2022-09-22T14:33:33.537Z,28.80
2022-09-22T14:36:02.930Z,28.90
2022-09-22T14:38:35.642Z,29.00
2022-09-22T14:43:38.153Z,29.30
2022-09-22T14:46:21.817Z,29.30
2022-09-22T14:51:22.328Z,29.40
2022-09-22T14:54:05.580Z,29.40
2022-09-22T14:56:34.555Z,29.40
2022-09-22T14:59:26.222Z,29.40
2022-09-22T15:04:40.479Z,29.40
2022-09-22T15:07:20.065Z,29.40
2022-09-22T15:09:51.092Z,29.40
2022-09-22T15:12:38.013Z,29.30
2022-09-22T15:15:26.567Z,29.30
2022-09-22T15:18:16.238Z,29.20
2022-09-22T15:20:53.581Z,29.20
2022-09-22T15:23:26.988Z,29.20
2022-09-22T15:26:01.802Z,29.20
2022-09-22T15:28:28.511Z,29.30
2022-09-22T15:30:55.276Z,29.30
2022-09-22T15:33:22.193Z,29.30
2022-09-22T15:35:53.552Z,29.40
2022-09-22T15:38:23.865Z,27.60
2022-09-22T15:40:50.902Z,29.50
2022-09-22T15:43:23.062Z,29.60
2022-09-22T15:45:51.772Z,29.60
2022-09-22T15:48:23.590Z,29.70
2022-09-22T15:50:51.227Z,29.70
2022-09-22T15:53:18.000Z,29.80
2022-09-22T15:55:44.840Z,29.80
2022-09-22T15:58:13.903Z,29.90
2022-09-22T16:00:40.712Z,29.90
2022-09-22T16:03:22.224Z,29.90
2022-09-22T16:05:59.401Z,29.90
2022-09-22T16:08:28.838Z,29.80
2022-09-22T16:10:56.426Z,29.80
2022-09-22T16:13:23.932Z,29.70
2022-09-22T16:15:51.484Z,29.70
2022-09-22T16:18:18.342Z,29.60
2022-09-22T16:20:46.586Z,29.50
2022-09-22T16:23:13.374Z,29.40
2022-09-22T16:25:42.642Z,29.20
2022-09-22T16:28:10.558Z,29.10
2022-09-22T16:30:37.601Z,28.90
2022-09-22T16:33:04.968Z,28.80
2022-09-22T16:35:31.644Z,28.60
2022-09-22T16:37:58.326Z,28.40
2022-09-22T16:40:25.583Z,28.20
2022-09-22T16:42:52.443Z,28.10
2022-09-22T16:45:39.089Z,27.90
2022-09-22T16:48:07.069Z,27.70
2022-09-22T16:50:36.479Z,27.50
2022-09-22T16:53:04.668Z,27.30
2022-09-22T16:55:34.575Z,27.20
2022-09-22T16:58:05.575Z,26.90
2022-09-22T17:00:32.505Z,26.80
2022-09-22T17:02:59.469Z,26.60
2022-09-22T17:05:26.227Z,26.40
2022-09-22T17:07:53.306Z,26.20
2022-09-22T17:10:20.075Z,26.10
2022-09-22T17:12:46.856Z,25.90
2022-09-22T17:15:15.623Z,25.70
2022-09-22T17:17:42.988Z,25.50
2022-09-22T17:20:10.021Z,25.40
2022-09-22T17:22:37.497Z,25.30
2022-09-22T17:25:04.811Z,25.10
2022-09-22T17:27:31.527Z,24.90
2022-09-22T17:29:58.712Z,24.70
2022-09-22T17:32:28.043Z,24.60
2022-09-22T17:34:54.919Z,24.50
2022-09-22T17:37:22.213Z,24.30
2022-09-22T17:39:49.416Z,24.10
2022-09-22T17:42:16.540Z,24.00
2022-09-22T17:44:43.404Z,23.90
2022-09-22T17:47:28.925Z,23.70
2022-09-22T17:50:14.710Z,23.60
2022-09-22T17:52:59.796Z,23.40
2022-09-22T17:55:26.745Z,23.30
2022-09-22T17:57:56.346Z,23.10
2022-09-22T18:00:23.868Z,22.90
2022-09-22T18:02:51.109Z,22.80
2022-09-22T18:05:20.797Z,22.70
2022-09-22T18:07:50.598Z,22.50
2022-09-22T18:10:20.914Z,22.40
2022-09-22T18:12:47.943Z,22.30
2022-09-22T18:15:17.380Z,22.20
2022-09-22T18:17:44.696Z,22.10
2022-09-22T18:20:12.967Z,21.90
2022-09-22T18:22:41.520Z,21.80
2022-09-22T18:25:10.950Z,21.70
2022-09-22T18:27:38.283Z,21.60
2022-09-22T18:30:06.355Z,21.50
2022-09-22T18:32:34.859Z,21.40
2022-09-22T18:35:02.580Z,21.30
2022-09-22T18:37:29.643Z,21.20
2022-09-22T18:39:56.542Z,21.10
2022-09-22T18:42:24.424Z,21.00
2022-09-22T18:44:52.684Z,20.90
2022-09-22T18:47:21.023Z,20.80
2022-09-22T18:49:51.805Z,20.70
2022-09-22T18:52:24.105Z,20.60
2022-09-22T18:54:54.222Z,20.50
2022-09-22T18:57:22.318Z,20.40
2022-09-22T18:59:51.000Z,20.40
2022-09-22T19:02:21.593Z,20.30
2022-09-22T19:04:49.320Z,20.20
2022-09-22T19:07:38.948Z,20.20
2022-09-22T19:10:08.924Z,20.10
2022-09-22T19:12:41.622Z,20.00
2022-09-22T19:15:17.049Z,19.90
2022-09-22T19:17:44.958Z,19.90
2022-09-22T19:20:14.063Z,19.80
2022-09-22T19:22:41.937Z,19.80
2022-09-22T19:25:10.586Z,19.70
2022-09-22T19:27:39.813Z,19.60
2022-09-22T19:30:07.612Z,19.50
2022-09-22T19:32:34.392Z,19.50
2022-09-22T19:35:01.284Z,19.90
2022-09-22T19:37:29.281Z,19.40
2022-09-22T19:39:56.458Z,19.60
2022-09-22T19:42:23.564Z,19.20
2022-09-22T19:44:50.700Z,19.30
2022-09-22T19:49:44.583Z,19.10
2022-09-22T19:52:12.295Z,19.10
2022-09-22T19:54:38.996Z,19.00
2022-09-22T19:57:05.690Z,19.00
2022-09-22T19:59:32.457Z,18.90
2022-09-22T20:01:59.288Z,18.90
2022-09-22T20:04:26.087Z,18.80
2022-09-22T20:06:52.788Z,18.80
2022-09-22T20:09:19.502Z,18.70
2022-09-22T20:11:48.165Z,18.70
2022-09-22T20:14:22.125Z,18.70
2022-09-22T20:16:53.505Z,18.60
2022-09-22T20:19:21.091Z,18.60
2022-09-22T20:21:47.928Z,18.50
2022-09-22T20:24:16.034Z,18.40
2022-09-22T20:26:43.532Z,18.40
2022-09-22T20:29:11.260Z,18.30
2022-09-22T20:31:38.174Z,18.40
2022-09-22T20:34:07.893Z,18.20
2022-09-22T20:36:37.036Z,18.30
2022-09-22T20:39:04.563Z,18.30
2022-09-22T20:41:32.666Z,18.20
2022-09-22T20:43:59.499Z,18.20
2022-09-22T20:48:55.532Z,18.10
2022-09-22T20:51:23.067Z,18.10
2022-09-22T20:53:50.010Z,17.90
2022-09-22T20:56:17.026Z,18.00
2022-09-22T20:58:45.030Z,18.00
2022-09-22T21:01:13.641Z,18.00
2022-09-22T21:03:40.378Z,18.00
2022-09-22T21:06:08.924Z,18.00
2022-09-22T21:08:58.121Z,18.00
2022-09-22T21:11:24.922Z,17.90
2022-09-22T21:13:52.986Z,18.20
2022-09-22T21:16:19.732Z,17.90
2022-09-22T21:18:48.789Z,17.90
2022-09-22T21:21:17.655Z,17.90
2022-09-22T21:23:45.079Z,17.80
2022-09-22T21:26:12.297Z,17.80
2022-09-22T21:28:38.976Z,17.80
2022-09-22T21:31:06.717Z,13.50
2022-09-22T21:33:34.116Z,17.80
2022-09-22T21:36:00.973Z,17.70
2022-09-22T21:38:28.038Z,17.70
2022-09-22T21:40:58.545Z,17.70
2022-09-22T21:43:25.590Z,17.70
2022-09-22T21:46:04.212Z,17.60
2022-09-22T21:48:32.638Z,17.60
2022-09-22T21:51:00.661Z,17.60
2022-09-22T21:53:28.112Z,17.60
2022-09-22T21:56:02.446Z,17.60
2022-09-22T21:58:30.023Z,17.50
2022-09-22T22:00:57.258Z,17.50
2022-09-22T22:03:34.179Z,17.50
2022-09-22T22:06:00.930Z,17.50
2022-09-22T22:08:27.814Z,17.50
2022-09-22T22:11:05.143Z,17.40
2022-09-22T22:13:32.389Z,17.50
2022-09-22T22:15:59.805Z,17.60
2022-09-22T22:18:26.973Z,17.50
2022-09-22T22:20:57.923Z,17.50
2022-09-22T22:23:26.225Z,17.50
2022-09-22T22:25:57.823Z,17.60
2022-09-22T22:28:24.751Z,17.50
2022-09-22T22:30:51.682Z,17.50
2022-09-22T22:33:18.646Z,17.50
2022-09-22T22:35:49.416Z,17.50
2022-09-22T22:38:16.605Z,17.50
2022-09-22T22:40:46.498Z,17.50
2022-09-22T22:43:14.339Z,17.50
2022-09-22T22:45:44.972Z,17.50
2022-09-22T22:48:12.241Z,17.50
2022-09-22T22:50:39.640Z,17.50
2022-09-22T22:53:08.819Z,17.50
2022-09-22T22:55:35.693Z,17.50
2022-09-22T22:58:03.171Z,17.60
2022-09-22T23:00:29.902Z,17.60
2022-09-22T23:02:56.616Z,17.60
2022-09-22T23:05:23.356Z,17.50
2022-09-22T23:07:51.775Z,17.60
2022-09-22T23:10:19.163Z,17.60
2022-09-22T23:12:46.774Z,17.60
2022-09-22T23:15:13.874Z,17.60
2022-09-22T23:17:40.638Z,17.50
2022-09-22T23:20:07.984Z,17.60
2022-09-22T23:22:35.454Z,17.60
2022-09-22T23:25:02.899Z,17.50
2022-09-22T23:27:29.663Z,17.50
2022-09-22T23:29:57.185Z,17.50
2022-09-22T23:32:24.547Z,17.40
2022-09-22T23:34:51.248Z,17.40
2022-09-22T23:37:17.969Z,17.40
2022-09-22T23:39:44.718Z,17.40
2022-09-22T23:42:11.435Z,17.30
2022-09-22T23:44:38.271Z,17.20
2022-09-22T23:47:05.024Z,17.20
2022-09-22T23:49:32.457Z,17.10
2022-09-22T23:51:59.116Z,17.10
2022-09-22T23:54:26.759Z,17.00
2022-09-22T23:56:53.641Z,17.00
2022-09-22T23:59:20.520Z,16.90
